Terminal Aerodrome Forecast
Issued by NWS

Home | Current Version | Previous Version | Text Only | Print | Product List | Glossary On
Versions: 1 2 3 4 5 6 7 8 9 10 11 12 13 14 15 16 17 18 19 20 21 22 23 24 25 26 27 28 29 30 31
000
FTUS43 KILX 182342
TAFDEC
TAF
KDEC 182342Z 1900/1924 17004KT P6SM BKN035
     FM190900 16005KT P6SM BKN015
     FM191200 13005KT P6SM BKN008
     FM191800 11007KT 3SM -SHRA OVC010
     FM192100 09008KT 1 1/2SM -SHRA OVC003=

USA.gov is the U.S. government's official web portal to all federal, state and local government web resources and services.